F\v Desperado — FVFQ — position and weather

sailwx.info

Track history (hours):
 
Tides and Currents Weather Stations Pressure Air Temp Water Temp Dewpoint Dewpoint Depression Visibility Wind Speed Wind Dir Waves Ship Positions

F\v Desperado

Last reported at 2017-Oct-18 02:08 UTC. Time now 2017-Oct-18 03:55 UTC.
Position N 46°46' W 003°24'.

Type: Fishing. MMSI: 228312000.

Date/timePositionNaut miles runAvg speedWind from/ knotsBaromVisibWave heightAir tempDewpointWater temp
2017-Oct-18 02:08N 46°46' W 003°24'1 3.4
2017-Oct-18 01:50N 46°46' W 003°26'1 3.4
2017-Oct-18 01:30N 46°47' W 003°27'2 3.2
2017-Oct-18 01:00N 46°48' W 003°29'2 3.2
2017-Oct-18 00:30N 46°49' W 003°30'2 3.2
2017-Oct-17 23:59N 46°51' W 003°31'2 3.1
2017-Oct-17 23:28N 46°52' W 003°32'39 3.2
2017-Oct-17 11:23N 47°27' W 003°58'4 7.3
2017-Oct-17 10:49N 47°31' W 003°57'3 7.7
2017-Oct-17 10:28N 47°33' W 003°56'4 7.8
2017-Oct-17 09:58N 47°37' W 003°54'7 7.6
2017-Oct-17 09:02N 47°44' W 003°55'4 7.9
2017-Oct-17 08:31N 47°48' W 003°56'0 8.4
2017-Oct-17 08:29N 47°48' W 003°56'4 0.9
2017-Oct-17 03:46N 47°53' W 003°55'0 0.0
2017-Oct-17 03:29N 47°53' W 003°55'0 0.0
2017-Oct-17 02:59N 47°53' W 003°55'0 0.0
2017-Oct-15 11:35N 47°53' W 003°55'0 0.0
2017-Oct-15 11:24N 47°53' W 003°55'0 0.0
2017-Oct-14 08:15N 47°53' W 003°55'0 0.0
2017-Oct-14 06:24N 47°53' W 003°55'0 0.0
2017-Oct-14 04:08N 47°53' W 003°55'0 0.0
2017-Oct-14 03:03N 47°53' W 003°55'0 0.0
2017-Oct-14 01:27N 47°53' W 003°55'0 0.0
2017-Oct-14 00:48N 47°53' W 003°55'0 0.0
2017-Oct-14 00:29N 47°53' W 003°55'1 1.3
2017-Oct-13 23:46N 47°52' W 003°55'2 6.9
2017-Oct-13 23:30N 47°50' W 003°56'4 8.6
2017-Oct-13 23:00N 47°46' W 003°55'5 8.6
2017-Oct-13 22:24N 47°41' W 003°54'6 8.5
2017-Oct-13 21:45N 47°35' W 003°52'2 8.6
2017-Oct-13 21:30N 47°33' W 003°52'4 8.6
2017-Oct-13 21:00N 47°29' W 003°51'4 8.7
2017-Oct-13 20:30N 47°25' W 003°49'4 8.7
2017-Oct-13 20:00N 47°20' W 003°47'4 8.6
2017-Oct-13 19:30N 47°16' W 003°46'5 8.7
2017-Oct-13 18:58N 47°12' W 003°45'7 8.8
2017-Oct-13 18:09N 47°05' W 003°42'2 8.7
2017-Oct-13 17:59N 47°03' W 003°42'7 6.1
2017-Oct-13 16:46N 46°56' W 003°41'3 3.2
2017-Oct-13 15:56N 46°56' W 003°45'1 2.4
2017-Oct-13 15:23N 46°56' W 003°43'2 2.8
2017-Oct-13 14:43N 46°55' W 003°40'1 3.3
2017-Oct-13 14:28N 46°56' W 003°40'1 1.6
2017-Oct-13 13:34N 46°56' W 003°42'0 3.5
2017-Oct-13 13:30N 46°56' W 003°42'2 2.5
2017-Oct-13 12:40N 46°55' W 003°45'1 3.5
2017-Oct-13 12:26N 46°55' W 003°44'2 3.4
2017-Oct-13 11:48N 46°55' W 003°41'3 2.3
2017-Oct-13 10:29N 46°56' W 003°45'2 2.9
2017-Oct-13 09:57N 46°57' W 003°43'2 1.5
2017-Oct-13 08:44N 46°55' W 003°44'1 3.4
2017-Oct-13 08:23N 46°56' W 003°45'1 2.5
2017-Oct-13 07:48N 46°57' W 003°43'1 1.7
2017-Oct-13 07:25N 46°56' W 003°42'2 1.4
2017-Oct-13 06:15N 46°55' W 003°44'0 0.5
2017-Oct-13 05:15N 46°54' W 003°44'1 3.2
2017-Oct-13 04:57N 46°54' W 003°42'2 3.2
2017-Oct-13 04:26N 46°55' W 003°40'2 3.0
2017-Oct-13 03:55N 46°56' W 003°38'5 3.1
2017-Oct-13 02:08N 46°57' W 003°46'2 2.3
2017-Oct-13 01:25N 46°56' W 003°48'1 3.4
2017-Oct-13 01:00N 46°56' W 003°46'1 0.7
2017-Oct-12 23:53N 46°56' W 003°47'1 2.9
2017-Oct-12 23:29N 46°57' W 003°46'1 2.0
2017-Oct-12 22:50N 46°56' W 003°47'1 3.3
2017-Oct-12 22:25N 46°55' W 003°45'1 3.3
2017-Oct-12 22:00N 46°55' W 003°43'1 0.6
2017-Oct-12 20:08N 46°56' W 003°45'0 3.4
2017-Oct-12 20:00N 46°56' W 003°45'0 0.0
2017-Oct-12 17:50N 46°56' W 003°45'1 2.6
2017-Oct-12 17:19N 46°57' W 003°43'1 3.2
2017-Oct-12 17:00N 46°57' W 003°41'1 1.4
2017-Oct-12 16:09N 46°55' W 003°41'1 3.3
2017-Oct-12 15:53N 46°56' W 003°42'2 1.6
2017-Oct-12 14:54N 46°55' W 003°43'2 1.0
2017-Oct-12 13:22N 46°56' W 003°45'4 3.9
2017-Oct-12 12:24N 46°57' W 003°40'7 2.0
2017-Oct-12 08:41N 46°60' W 003°29'1 3.3
2017-Oct-12 08:28N 47°01' W 003°30'2 3.6
2017-Oct-12 07:58N 47°03' W 003°30'4 7.7
2017-Oct-12 07:27N 47°06' W 003°31'5 8.5
2017-Oct-12 06:54N 47°10' W 003°35'3 8.1
2017-Oct-12 06:30N 47°13' W 003°36'5 8.3
2017-Oct-12 05:56N 47°18' W 003°39'4 8.3
2017-Oct-12 05:30N 47°21' W 003°41'4 8.0
2017-Oct-12 05:00N 47°25' W 003°43'4 8.1
2017-Oct-12 04:30N 47°29' W 003°45'4 8.3
2017-Oct-12 04:00N 47°32' W 003°48'4 8.4
2017-Oct-12 03:30N 47°36' W 003°50'16 8.2
2017-Oct-12 01:33N 47°52' W 003°55'1 1.1
2017-Oct-12 00:27N 47°51' W 003°56'4 8.3
2017-Oct-11 23:57N 47°47' W 003°55'4 8.4
2017-Oct-11 23:26N 47°42' W 003°54'4 8.3
2017-Oct-11 22:54N 47°38' W 003°52'3 8.0
2017-Oct-11 22:30N 47°35' W 003°50'4 8.0
2017-Oct-11 22:00N 47°32' W 003°47'4 7.9
2017-Oct-11 21:30N 47°28' W 003°45'4 8.0
2017-Oct-11 20:59N 47°25' W 003°42'4 8.1
2017-Oct-11 20:30N 47°21' W 003°39'6 8.2
2017-Oct-11 19:45N 47°16' W 003°35'2 8.2
2017-Oct-11 19:29N 47°14' W 003°34'5 8.1
2017-Oct-11 18:52N 47°09' W 003°31'3 7.9
2017-Oct-11 18:30N 47°07' W 003°29'30 1.4
2017-Oct-10 21:15N 46°37' W 003°22'1 3.5
2017-Oct-10 20:57N 46°38' W 003°21'2 3.6
2017-Oct-10 20:27N 46°40' W 003°21'2 3.5
2017-Oct-10 20:00N 46°41' W 003°22'2 3.6
2017-Oct-10 19:26N 46°44' W 003°22'6 2.0
2017-Oct-10 16:17N 46°49' W 003°27'3 3.2
2017-Oct-10 15:12N 46°52' W 003°29'1 2.6
2017-Oct-10 14:38N 46°52' W 003°31'2 0.7
2017-Oct-10 12:23N 46°54' W 003°32'2 3.4
2017-Oct-10 11:55N 46°54' W 003°30'2 0.2
2017-Oct-10 02:09N 46°52' W 003°32'1 3.3
2017-Oct-10 01:59N 46°52' W 003°32'2 3.3
2017-Oct-10 01:28N 46°53' W 003°34'2 3.2
2017-Oct-10 00:59N 46°55' W 003°35'  
Track history (hours):
 
Tides and Currents Weather Stations Pressure Air Temp Water Temp Dewpoint Dewpoint Depression Visibility Wind Speed Wind Dir Waves Ship Positions

F\v Desperado

Last reported at 2017-Oct-18 02:08 UTC. Time now 2017-Oct-18 03:55 UTC.
Position N 46°46' W 003°24'.

Type: Fishing. MMSI: 228312000.

Date/timePositionNaut miles runAvg speedWind from/ knotsBaromVisibWave heightAir tempDewpointWater temp
2017-Oct-18 02:08N 46°46' W 003°24'1 3.4
2017-Oct-18 01:50N 46°46' W 003°26'1 3.4
2017-Oct-18 01:30N 46°47' W 003°27'2 3.2
2017-Oct-18 01:00N 46°48' W 003°29'2 3.2
2017-Oct-18 00:30N 46°49' W 003°30'2 3.2
2017-Oct-17 23:59N 46°51' W 003°31'2 3.1
2017-Oct-17 23:28N 46°52' W 003°32'39 3.2
2017-Oct-17 11:23N 47°27' W 003°58'4 7.3
2017-Oct-17 10:49N 47°31' W 003°57'3 7.7
2017-Oct-17 10:28N 47°33' W 003°56'4 7.8
2017-Oct-17 09:58N 47°37' W 003°54'7 7.6
2017-Oct-17 09:02N 47°44' W 003°55'4 7.9
2017-Oct-17 08:31N 47°48' W 003°56'0 8.4
2017-Oct-17 08:29N 47°48' W 003°56'4 0.9
2017-Oct-17 03:46N 47°53' W 003°55'0 0.0
2017-Oct-17 03:29N 47°53' W 003°55'0 0.0
2017-Oct-17 02:59N 47°53' W 003°55'0 0.0
2017-Oct-15 11:35N 47°53' W 003°55'0 0.0
2017-Oct-15 11:24N 47°53' W 003°55'0 0.0
2017-Oct-14 08:15N 47°53' W 003°55'0 0.0
2017-Oct-14 06:24N 47°53' W 003°55'0 0.0
2017-Oct-14 04:08N 47°53' W 003°55'0 0.0
2017-Oct-14 03:03N 47°53' W 003°55'0 0.0
2017-Oct-14 01:27N 47°53' W 003°55'0 0.0
2017-Oct-14 00:48N 47°53' W 003°55'0 0.0
2017-Oct-14 00:29N 47°53' W 003°55'1 1.3
2017-Oct-13 23:46N 47°52' W 003°55'2 6.9
2017-Oct-13 23:30N 47°50' W 003°56'4 8.6
2017-Oct-13 23:00N 47°46' W 003°55'5 8.6
2017-Oct-13 22:24N 47°41' W 003°54'6 8.5
2017-Oct-13 21:45N 47°35' W 003°52'2 8.6
2017-Oct-13 21:30N 47°33' W 003°52'4 8.6
2017-Oct-13 21:00N 47°29' W 003°51'4 8.7
2017-Oct-13 20:30N 47°25' W 003°49'4 8.7
2017-Oct-13 20:00N 47°20' W 003°47'4 8.6
2017-Oct-13 19:30N 47°16' W 003°46'5 8.7
2017-Oct-13 18:58N 47°12' W 003°45'7 8.8
2017-Oct-13 18:09N 47°05' W 003°42'2 8.7
2017-Oct-13 17:59N 47°03' W 003°42'7 6.1
2017-Oct-13 16:46N 46°56' W 003°41'3 3.2
2017-Oct-13 15:56N 46°56' W 003°45'1 2.4
2017-Oct-13 15:23N 46°56' W 003°43'2 2.8
2017-Oct-13 14:43N 46°55' W 003°40'1 3.3
2017-Oct-13 14:28N 46°56' W 003°40'1 1.6
2017-Oct-13 13:34N 46°56' W 003°42'0 3.5
2017-Oct-13 13:30N 46°56' W 003°42'2 2.5
2017-Oct-13 12:40N 46°55' W 003°45'1 3.5
2017-Oct-13 12:26N 46°55' W 003°44'2 3.4
2017-Oct-13 11:48N 46°55' W 003°41'3 2.3
2017-Oct-13 10:29N 46°56' W 003°45'2 2.9
2017-Oct-13 09:57N 46°57' W 003°43'2 1.5
2017-Oct-13 08:44N 46°55' W 003°44'1 3.4
2017-Oct-13 08:23N 46°56' W 003°45'1 2.5
2017-Oct-13 07:48N 46°57' W 003°43'1 1.7
2017-Oct-13 07:25N 46°56' W 003°42'2 1.4
2017-Oct-13 06:15N 46°55' W 003°44'0 0.5
2017-Oct-13 05:15N 46°54' W 003°44'1 3.2
2017-Oct-13 04:57N 46°54' W 003°42'2 3.2
2017-Oct-13 04:26N 46°55' W 003°40'2 3.0
2017-Oct-13 03:55N 46°56' W 003°38'5 3.1
2017-Oct-13 02:08N 46°57' W 003°46'2 2.3
2017-Oct-13 01:25N 46°56' W 003°48'1 3.4
2017-Oct-13 01:00N 46°56' W 003°46'1 0.7
2017-Oct-12 23:53N 46°56' W 003°47'1 2.9
2017-Oct-12 23:29N 46°57' W 003°46'1 2.0
2017-Oct-12 22:50N 46°56' W 003°47'1 3.3
2017-Oct-12 22:25N 46°55' W 003°45'1 3.3
2017-Oct-12 22:00N 46°55' W 003°43'1 0.6
2017-Oct-12 20:08N 46°56' W 003°45'0 3.4
2017-Oct-12 20:00N 46°56' W 003°45'0 0.0
2017-Oct-12 17:50N 46°56' W 003°45'1 2.6
2017-Oct-12 17:19N 46°57' W 003°43'1 3.2
2017-Oct-12 17:00N 46°57' W 003°41'1 1.4
2017-Oct-12 16:09N 46°55' W 003°41'1 3.3
2017-Oct-12 15:53N 46°56' W 003°42'2 1.6
2017-Oct-12 14:54N 46°55' W 003°43'2 1.0
2017-Oct-12 13:22N 46°56' W 003°45'4 3.9
2017-Oct-12 12:24N 46°57' W 003°40'7 2.0
2017-Oct-12 08:41N 46°60' W 003°29'1 3.3
2017-Oct-12 08:28N 47°01' W 003°30'2 3.6
2017-Oct-12 07:58N 47°03' W 003°30'4 7.7
2017-Oct-12 07:27N 47°06' W 003°31'5 8.5
2017-Oct-12 06:54N 47°10' W 003°35'3 8.1
2017-Oct-12 06:30N 47°13' W 003°36'5 8.3
2017-Oct-12 05:56N 47°18' W 003°39'4 8.3
2017-Oct-12 05:30N 47°21' W 003°41'4 8.0
2017-Oct-12 05:00N 47°25' W 003°43'4 8.1
2017-Oct-12 04:30N 47°29' W 003°45'4 8.3
2017-Oct-12 04:00N 47°32' W 003°48'4 8.4
2017-Oct-12 03:30N 47°36' W 003°50'16 8.2
2017-Oct-12 01:33N 47°52' W 003°55'1 1.1
2017-Oct-12 00:27N 47°51' W 003°56'4 8.3
2017-Oct-11 23:57N 47°47' W 003°55'4 8.4
2017-Oct-11 23:26N 47°42' W 003°54'4 8.3
2017-Oct-11 22:54N 47°38' W 003°52'3 8.0
2017-Oct-11 22:30N 47°35' W 003°50'4 8.0
2017-Oct-11 22:00N 47°32' W 003°47'4 7.9
2017-Oct-11 21:30N 47°28' W 003°45'4 8.0
2017-Oct-11 20:59N 47°25' W 003°42'4 8.1
2017-Oct-11 20:30N 47°21' W 003°39'6 8.2
2017-Oct-11 19:45N 47°16' W 003°35'2 8.2
2017-Oct-11 19:29N 47°14' W 003°34'5 8.1
2017-Oct-11 18:52N 47°09' W 003°31'3 7.9
2017-Oct-11 18:30N 47°07' W 003°29'30 1.4
2017-Oct-10 21:15N 46°37' W 003°22'1 3.5
2017-Oct-10 20:57N 46°38' W 003°21'2 3.6
2017-Oct-10 20:27N 46°40' W 003°21'2 3.5
2017-Oct-10 20:00N 46°41' W 003°22'2 3.6
2017-Oct-10 19:26N 46°44' W 003°22'6 2.0
2017-Oct-10 16:17N 46°49' W 003°27'3 3.2
2017-Oct-10 15:12N 46°52' W 003°29'1 2.6
2017-Oct-10 14:38N 46°52' W 003°31'2 0.7
2017-Oct-10 12:23N 46°54' W 003°32'2 3.4
2017-Oct-10 11:55N 46°54' W 003°30'2 0.2
2017-Oct-10 02:09N 46°52' W 003°32'1 3.3
2017-Oct-10 01:59N 46°52' W 003°32'2 3.3
2017-Oct-10 01:28N 46°53' W 003°34'2 3.2
2017-Oct-10 00:59N 46°55' W 003°35'  

Dump ship's entire track history